Time;durP1;ratioP1;P1;durP2;ratioP2;P2;SDS_P1;SDS_P2;PMS_P1;PMS_P2;Temp;Humidity;BMP_temperature;BMP_pressure;BME280_temperature;BME280_humidity;BME280_pressure;Samples;Min_cycle;Max_cycle;Signal;HPM_P1;HPM_P2
2023/02/27 00:01:37;;;;;;;9.10;4.00;;;;;;;0.97;81.85;101236.49;104367;1274;99309;-79
2023/02/27 00:04:22;;;;;;;7.10;3.80;;;;;;;0.96;81.83;101238.69;104358;1273;99078;-79
2023/02/27 00:07:07;;;;;;;6.90;3.20;;;;;;;0.94;81.97;101240.21;104281;1273;97933;-79
2023/02/27 00:09:52;;;;;;;10.00;3.50;;;;;;;0.95;82.13;101242.28;104441;1276;99849;-79
2023/02/27 00:12:37;;;;;;;11.30;5.40;;;;;;;0.92;82.31;101241.59;104412;1273;101632;-79
2023/02/27 00:15:22;;;;;;;8.60;3.50;;;;;;;0.91;82.50;101241.17;104400;1277;99298;-78
2023/02/27 00:18:07;;;;;;;8.50;3.60;;;;;;;0.91;82.60;101240.28;104432;1273;97937;-78
2023/02/27 00:20:53;;;;;;;9.50;4.00;;;;;;;0.91;82.80;101237.67;104592;1276;98323;-80
2023/02/27 00:23:38;;;;;;;10.30;3.80;;;;;;;0.89;82.93;101242.85;104760;1273;97993;-81
2023/02/27 00:26:22;;;;;;;9.70;3.60;;;;;;;0.91;83.15;101248.21;104523;1274;101412;-79
2023/02/27 00:29:07;;;;;;;7.70;4.30;;;;;;;0.90;83.27;101246.66;104315;1273;99252;-78
2023/02/27 00:31:52;;;;;;;7.70;3.80;;;;;;;0.90;83.31;101250.35;104361;1276;98111;-78
2023/02/27 00:34:36;;;;;;;7.60;4.50;;;;;;;0.92;83.40;101252.16;104462;1273;99260;-78
2023/02/27 00:37:21;;;;;;;7.90;4.30;;;;;;;0.94;83.52;101252.52;104626;1276;97991;-79
2023/02/27 00:40:07;;;;;;;10.70;3.80;;;;;;;0.96;83.46;101255.16;104502;1277;101349;-82
2023/02/27 00:42:52;;;;;;;8.40;3.60;;;;;;;0.99;83.51;101256.79;104412;1274;99059;-79
2023/02/27 00:45:37;;;;;;;10.80;4.20;;;;;;;0.99;83.63;101262.88;104461;1273;97996;-79
2023/02/27 00:48:23;;;;;;;9.30;4.10;;;;;;;0.98;83.52;101260.16;104590;1273;97982;-80
2023/02/27 00:51:08;;;;;;;8.70;4.00;;;;;;;0.95;83.44;101263.55;104364;1275;98528;-81
2023/02/27 00:53:52;;;;;;;8.60;3.70;;;;;;;0.94;83.49;101261.36;104546;1273;102665;-81
2023/02/27 00:56:37;;;;;;;8.00;4.30;;;;;;;0.92;83.65;101262.03;104573;1273;100042;-83
2023/02/27 00:59:22;;;;;;;11.10;4.10;;;;;;;0.93;83.88;101261.95;104583;1273;98050;-80
2023/02/27 01:02:07;;;;;;;11.80;4.60;;;;;;;0.95;83.90;101263.38;104517;1273;97996;-79
2023/02/27 01:04:51;;;;;;;7.90;3.80;;;;;;;0.95;83.81;101268.13;104605;1273;98653;-79
2023/02/27 01:07:36;;;;;;;11.30;3.90;;;;;;;0.92;83.85;101267.10;104647;1273;102758;-81
2023/02/27 01:10:21;;;;;;;8.90;4.30;;;;;;;0.90;83.91;101265.66;104543;1274;99071;-79
2023/02/27 01:13:06;;;;;;;9.10;3.70;;;;;;;0.91;83.99;101265.26;104357;1277;98601;-77
2023/02/27 01:15:52;;;;;;;7.30;3.40;;;;;;;0.89;84.06;101265.56;104598;1273;98697;-79
2023/02/27 01:18:37;;;;;;;11.80;4.80;;;;;;;0.88;84.21;101264.40;104492;1273;98436;-79
2023/02/27 01:21:23;;;;;;;8.30;3.80;;;;;;;0.85;84.23;101268.13;104446;1274;101410;-78
2023/02/27 01:24:09;;;;;;;10.40;4.00;;;;;;;0.81;84.40;101269.10;104184;1288;99180;-80
2023/02/27 01:26:54;;;;;;;12.80;4.90;;;;;;;0.80;84.68;101269.20;104521;1274;98836;-80
2023/02/27 01:29:38;;;;;;;8.90;4.00;;;;;;;0.81;84.86;101268.27;104599;1277;98004;-79
2023/02/27 01:32:23;;;;;;;9.20;4.20;;;;;;;0.82;84.90;101268.71;104600;1277;99659;-80
2023/02/27 01:35:08;;;;;;;8.90;4.80;;;;;;;0.81;84.97;101268.05;104546;1272;102822;-78
2023/02/27 01:37:53;;;;;;;8.70;4.00;;;;;;;0.80;85.12;101267.77;104526;1277;100320;-79
2023/02/27 01:40:40;;;;;;;8.60;4.20;;;;;;;0.85;85.37;101272.74;104353;1280;97976;-80
2023/02/27 01:43:26;;;;;;;9.50;3.80;;;;;;;0.86;85.32;101275.43;104387;1274;97978;-78
2023/02/27 01:46:10;;;;;;;9.90;4.00;;;;;;;0.87;85.37;101278.89;105730;1273;97985;-81
2023/02/27 01:49:01;;;;;;;12.30;4.00;;;;;;;0.88;85.41;101280.06;104401;1275;101567;-80
2023/02/27 01:52:00;;;;;;;9.60;3.90;;;;;;;0.85;85.33;101279.88;104551;1277;100349;-78
2023/02/27 01:54:46;;;;;;;11.60;5.30;;;;;;;0.84;85.47;101283.36;104357;1277;98858;-80
2023/02/27 01:57:31;;;;;;;7.60;3.90;;;;;;;0.81;85.48;101284.95;104472;1273;97955;-81
2023/02/27 02:00:17;;;;;;;8.20;4.40;;;;;;;0.79;85.69;101287.02;104952;1273;99168;-79
2023/02/27 02:03:15;;;;;;;9.20;5.10;;;;;;;0.76;85.84;101287.02;104410;1273;102614;-78
2023/02/27 02:06:01;;;;;;;8.60;4.80;;;;;;;0.74;85.96;101289.09;104260;1277;99110;-79
2023/02/27 02:08:49;;;;;;;7.40;4.10;;;;;;;0.73;86.04;101292.70;104110;1273;98956;-78
2023/02/27 02:11:38;;;;;;;6.90;3.80;;;;;;;0.72;86.23;101293.11;104421;1276;98056;-79
2023/02/27 02:14:22;;;;;;;10.70;4.00;;;;;;;0.72;86.21;101291.90;104492;1273;97929;-78
2023/02/27 02:17:44;;;;;;;10.10;4.50;;;;;;;0.68;86.44;101295.88;104270;1278;101359;-78
2023/02/27 02:20:38;;;;;;;16.10;5.10;;;;;;;0.64;86.50;101297.89;104385;1273;99665;-78
2023/02/27 02:23:48;;;;;;;9.50;4.90;;;;;;;0.64;86.70;101297.01;104345;1273;97978;-78
2023/02/27 02:26:52;;;;;;;7.10;4.80;;;;;;;0.63;86.72;101293.77;104444;1275;97922;-79
2023/02/27 02:30:08;;;;;;;8.70;4.90;;;;;;;0.63;87.02;101290.09;104426;1276;99690;-78
2023/02/27 02:33:21;;;;;;;7.00;4.40;;;;;;;0.63;86.98;101292.66;104405;1274;101440;-81
2023/02/27 02:36:09;;;;;;;8.90;4.80;;;;;;;0.65;86.96;101294.86;104473;1276;99119;-77
2023/02/27 02:39:08;;;;;;;10.80;5.10;;;;;;;0.64;86.92;101296.12;104411;1276;99075;-79
2023/02/27 02:41:55;;;;;;;12.80;5.40;;;;;;;0.63;86.91;101298.17;104347;1273;97914;-80
2023/02/27 02:45:07;;;;;;;9.20;5.20;;;;;;;0.62;87.05;101302.27;104468;1277;98531;-79
2023/02/27 02:48:09;;;;;;;7.40;4.90;;;;;;;0.62;87.07;101307.39;104481;1277;102079;-78
2023/02/27 02:51:07;;;;;;;8.40;4.80;;;;;;;0.61;86.94;101309.38;104410;1279;100390;-79
2023/02/27 02:54:11;;;;;;;7.80;4.60;;;;;;;0.58;87.00;101313.05;104450;1280;99000;-79
2023/02/27 02:57:08;;;;;;;8.90;5.50;;;;;;;0.55;87.03;101318.26;104265;1275;98027;-81
2023/02/27 03:00:07;;;;;;;7.60;5.20;;;;;;;0.53;87.10;101320.86;104239;1273;99858;-79
2023/02/27 03:03:11;;;;;;;9.20;5.70;;;;;;;0.51;87.21;101321.65;104346;1273;102566;-77
2023/02/27 03:06:04;;;;;;;6.30;4.60;;;;;;;0.50;87.09;101322.48;104452;1277;101470;-78
2023/02/27 03:08:54;;;;;;;6.30;4.40;;;;;;;0.46;86.98;101327.13;104354;1273;98996;-78
2023/02/27 03:11:44;;;;;;;6.20;4.20;;;;;;;0.43;86.97;101327.64;104187;1276;97993;-78
2023/02/27 03:14:54;;;;;;;8.40;4.80;;;;;;;0.40;86.93;101329.64;104393;1274;98253;-79
2023/02/27 03:17:46;;;;;;;8.80;4.90;;;;;;;0.39;86.98;101335.83;104314;1279;101361;-78
2023/02/27 03:20:36;;;;;;;12.10;5.40;;;;;;;0.37;86.83;101338.84;105404;1276;100684;-79
2023/02/27 03:23:27;;;;;;;6.20;4.60;;;;;;;0.34;86.72;101345.30;104176;1273;98493;-79
2023/02/27 03:26:18;;;;;;;8.40;4.90;;;;;;;0.36;86.72;101347.31;104496;1277;98514;-79
2023/02/27 03:29:08;;;;;;;9.60;5.00;;;;;;;0.38;86.61;101349.98;104516;1277;97930;-80
2023/02/27 03:32:06;;;;;;;8.20;5.00;;;;;;;0.41;86.59;101357.52;104570;1273;102239;-79
2023/02/27 03:34:51;;;;;;;5.80;4.20;;;;;;;0.41;86.35;101360.14;104588;1278;100289;-77
2023/02/27 03:38:04;;;;;;;10.50;5.00;;;;;;;0.38;85.87;101358.08;104541;1273;98925;-78
2023/02/27 03:41:03;;;;;;;8.10;4.80;;;;;;;0.37;85.72;101362.52;104466;1274;98011;-80
2023/02/27 03:44:09;;;;;;;7.90;4.40;;;;;;;0.35;85.18;101367.41;104338;1280;99621;-78
2023/02/27 03:46:54;;;;;;;6.30;3.40;;;;;;;0.33;84.94;101366.64;104539;1274;102729;-78
2023/02/27 03:49:40;;;;;;;4.80;3.70;;;;;;;0.35;84.95;101369.19;105693;1277;100406;-78
2023/02/27 03:52:28;;;;;;;5.50;3.70;;;;;;;0.34;84.61;101374.29;104530;1279;98504;-79
2023/02/27 03:55:18;;;;;;;6.20;3.30;;;;;;;0.31;84.50;101376.96;104456;1278;98815;-78
2023/02/27 03:58:03;;;;;;;7.00;3.50;;;;;;;0.30;84.36;101383.56;104427;1274;98471;-78
2023/02/27 04:00:48;;;;;;;5.50;3.30;;;;;;;0.30;84.19;101382.02;104496;1277;101294;-79
2023/02/27 04:03:46;;;;;;;5.50;3.20;;;;;;;0.28;83.92;101388.03;104450;1274;99744;-78
2023/02/27 04:10:06;;;;;;;4.20;3.20;;;;;;;0.27;83.74;101398.68;104527;1276;98018;-78
2023/02/27 04:12:51;;;;;;;5.90;2.80;;;;;;;0.27;83.73;101404.84;104514;1273;98516;-80
2023/02/27 04:15:42;;;;;;;6.00;2.60;;;;;;;0.26;83.44;101410.52;104468;1277;101445;-78
2023/02/27 04:18:46;;;;;;;6.10;3.40;;;;;;;0.23;83.18;101416.84;104657;1273;99880;-79
2023/02/27 04:22:00;;;;;;;6.20;3.10;;;;;;;0.21;83.20;101418.77;104459;1277;99482;-79
2023/02/27 04:24:48;;;;;;;5.70;3.00;;;;;;;0.22;83.48;101419.41;104612;1273;97984;-78
2023/02/27 04:27:54;;;;;;;5.50;3.30;;;;;;;0.22;83.57;101422.00;104643;1273;98311;-79
2023/02/27 04:30:51;;;;;;;5.70;3.30;;;;;;;0.21;83.85;101423.71;104670;1273;101450;-79
2023/02/27 04:33:52;;;;;;;10.30;4.00;;;;;;;0.21;84.25;101421.60;104686;1274;100054;-80
2023/02/27 04:37:07;;;;;;;7.80;4.70;;;;;;;0.19;84.64;101420.45;104619;1273;97921;-79
2023/02/27 04:40:09;;;;;;;7.50;4.40;;;;;;;0.18;85.15;101426.53;104578;1275;98061;-78
2023/02/27 04:42:58;;;;;;;6.60;4.80;;;;;;;0.18;85.37;101434.59;104547;1274;98592;-79
2023/02/27 04:45:45;;;;;;;9.10;5.10;;;;;;;0.19;85.71;101435.92;104565;1277;101990;-81
2023/02/27 04:48:40;;;;;;;9.10;5.50;;;;;;;0.19;86.06;101436.79;104595;1273;99201;-78
2023/02/27 04:51:31;;;;;;;8.20;5.20;;;;;;;0.18;86.26;101440.59;104520;1275;98808;-80
2023/02/27 04:54:23;;;;;;;10.70;6.50;;;;;;;0.18;86.46;101442.48;105122;1279;98005;-78
2023/02/27 04:57:15;;;;;;;7.80;5.50;;;;;;;0.18;86.79;101441.94;107270;1273;95603;-79
2023/02/27 05:00:04;;;;;;;12.80;6.70;;;;;;;0.20;87.04;101439.55;104619;1274;101428;-79
2023/02/27 05:02:57;;;;;;;10.10;5.90;;;;;;;0.21;87.26;101440.05;104628;1273;100447;-80
2023/02/27 05:05:45;;;;;;;9.40;5.50;;;;;;;0.20;87.44;101442.89;104699;1279;97896;-79
2023/02/27 05:08:38;;;;;;;11.10;6.20;;;;;;;0.16;87.65;101442.28;104472;1276;97924;-78
2023/02/27 05:12:02;;;;;;;8.90;6.40;;;;;;;0.13;87.91;101442.66;104578;1273;98723;-79
2023/02/27 05:14:58;;;;;;;8.30;6.20;;;;;;;0.11;88.20;101449.48;103626;1286;102632;-80
2023/02/27 05:17:59;;;;;;;9.30;6.40;;;;;;;0.09;88.46;101456.10;104503;1276;100534;-79
2023/02/27 05:21:06;;;;;;;9.70;6.60;;;;;;;0.08;88.83;101462.09;104450;1273;99025;-79
2023/02/27 05:23:57;;;;;;;14.30;7.20;;;;;;;0.09;89.08;101467.34;104571;1275;98019;-78
2023/02/27 05:26:51;;;;;;;10.40;5.70;;;;;;;0.08;89.29;101481.26;104477;1273;98557;-78
2023/02/27 05:29:50;;;;;;;8.60;2.70;;;;;;;-0.01;88.74;101498.32;104464;1273;103116;-78
2023/02/27 05:32:40;;;;;;;4.90;2.30;;;;;;;-0.32;87.25;101502.58;104945;1274;100971;-83
2023/02/27 05:35:44;;;;;;;5.10;2.40;;;;;;;-0.58;87.21;101508.80;104790;1273;97943;-79
2023/02/27 05:38:35;;;;;;;3.20;1.90;;;;;;;-0.77;87.65;101513.30;104851;1276;98106;-80
2023/02/27 05:41:30;;;;;;;5.10;2.30;;;;;;;-0.86;88.27;101516.46;105101;1274;97984;-79
2023/02/27 05:44:18;;;;;;;3.60;1.60;;;;;;;-0.90;88.43;101516.53;105472;1273;103150;-83
2023/02/27 05:47:19;;;;;;;1.70;1.50;;;;;;;-0.91;88.39;101516.62;105512;1273;99147;-80
2023/02/27 05:50:11;;;;;;;3.10;1.70;;;;;;;-0.90;88.44;101516.38;105461;1276;98574;-78
2023/02/27 05:53:00;;;;;;;2.90;1.50;;;;;;;-0.88;88.37;101512.73;105229;1277;98098;-80
2023/02/27 05:55:53;;;;;;;2.00;1.50;;;;;;;-0.84;88.20;101513.90;104801;1276;97828;-80
2023/02/27 05:58:42;;;;;;;2.20;1.50;;;;;;;-0.80;87.89;101518.53;105340;1274;102732;-78
2023/02/27 06:01:27;;;;;;;4.40;1.50;;;;;;;-0.75;87.91;101517.05;104904;1277;100232;-80
2023/02/27 06:04:12;;;;;;;3.60;1.70;;;;;;;-0.71;87.69;101522.94;104847;1273;99083;-80
2023/02/27 06:06:58;;;;;;;3.10;1.70;;;;;;;-0.69;87.40;101524.39;105340;1279;97939;-79
2023/02/27 06:09:43;;;;;;;2.10;1.20;;;;;;;-0.65;87.37;101524.86;105193;1273;97743;-79
2023/02/27 06:12:28;;;;;;;4.00;1.50;;;;;;;-0.62;87.08;101525.55;105245;1273;102016;-79
2023/02/27 06:15:13;;;;;;;1.50;1.30;;;;;;;-0.59;86.98;101525.52;104917;1274;99143;-79
2023/02/27 06:17:59;;;;;;;3.50;1.40;;;;;;;-0.55;86.91;101530.17;104884;1276;97947;-79
2023/02/27 06:20:45;;;;;;;2.10;1.20;;;;;;;-0.50;86.65;101534.98;104922;1275;97886;-80
2023/02/27 06:23:30;;;;;;;3.20;1.70;;;;;;;-0.47;86.49;101537.25;104967;1273;99325;-83
2023/02/27 06:26:15;;;;;;;1.50;1.10;;;;;;;-0.45;85.95;101534.83;104763;1273;101327;-81
2023/02/27 06:28:59;;;;;;;2.30;1.20;;;;;;;-0.43;85.67;101533.67;104868;1273;99251;-79
2023/02/27 06:31:44;;;;;;;3.90;1.20;;;;;;;-0.41;85.39;101537.05;104881;1274;99750;-79
2023/02/27 06:34:29;;;;;;;5.00;1.60;;;;;;;-0.38;85.13;101538.82;104978;1273;98020;-80
2023/02/27 06:37:13;;;;;;;2.70;1.80;;;;;;;-0.36;84.91;101544.80;104687;1278;98013;-79
2023/02/27 06:39:58;;;;;;;3.30;1.70;;;;;;;-0.32;84.94;101545.08;104742;1277;101414;-80
2023/02/27 06:42:44;;;;;;;1.70;1.10;;;;;;;-0.29;84.60;101545.44;104632;1280;100123;-81
2023/02/27 06:45:28;;;;;;;1.70;1.20;;;;;;;-0.26;84.39;101546.29;104578;1273;99011;-79
2023/02/27 06:48:13;;;;;;;1.70;1.50;;;;;;;-0.25;84.14;101553.39;104574;1277;98082;-79
2023/02/27 06:50:58;;;;;;;1.50;1.10;;;;;;;-0.23;83.88;101558.37;104547;1274;100118;-81
2023/02/27 06:53:43;;;;;;;3.00;1.40;;;;;;;-0.24;83.46;101563.85;104429;1277;102634;-79
2023/02/27 06:56:28;;;;;;;4.70;1.40;;;;;;;-0.25;83.41;101568.67;104459;1280;99032;-77
2023/02/27 06:59:13;;;;;;;5.00;1.30;;;;;;;-0.23;83.39;101572.95;105132;1273;98944;-88
2023/02/27 07:01:59;;;;;;;2.90;1.40;;;;;;;-0.21;83.18;101575.13;105157;1273;97899;-88
2023/02/27 07:04:44;;;;;;;3.30;1.40;;;;;;;-0.20;83.03;101578.38;105592;1273;97995;-89
2023/02/27 07:07:33;;;;;;;4.10;1.40;;;;;;;-0.22;82.48;101577.59;105582;1273;103716;-90
2023/02/27 07:10:18;;;;;;;6.30;1.90;;;;;;;-0.24;82.20;101575.80;105733;1273;100318;-88
2023/02/27 07:13:03;;;;;;;4.20;1.90;;;;;;;-0.25;81.98;101578.30;104814;1273;99095;-81
2023/02/27 07:15:49;;;;;;;2.20;1.30;;;;;;;-0.28;81.80;101582.55;105116;1279;97275;-79
2023/02/27 07:18:35;;;;;;;2.90;1.40;;;;;;;-0.31;81.57;101588.49;105012;1280;97920;-86
2023/02/27 07:21:20;;;;;;;5.70;1.40;;;;;;;-0.33;81.49;101590.55;105128;1273;103172;-82
2023/02/27 07:24:05;;;;;;;3.80;2.30;;;;;;;-0.32;81.67;101595.09;105495;1273;99122;-78
2023/02/27 07:26:51;;;;;;;3.20;1.80;;;;;;;-0.28;81.54;101597.63;105064;1276;98865;-76
2023/02/27 07:29:36;;;;;;;3.70;1.70;;;;;;;-0.22;81.27;101597.09;104525;1277;97986;-79
2023/02/27 07:32:21;;;;;;;6.90;1.60;;;;;;;-0.15;81.34;101597.77;104431;1274;98107;-79
2023/02/27 07:35:06;;;;;;;5.30;1.70;;;;;;;-0.09;80.75;101598.73;104517;1272;102985;-77
2023/02/27 07:37:51;;;;;;;2.70;1.30;;;;;;;-0.04;79.91;101600.17;104873;1272;99348;-77
2023/02/27 07:40:36;;;;;;;2.70;1.50;;;;;;;0.01;78.46;101595.52;105656;1277;99946;-87
2023/02/27 07:43:22;;;;;;;2.90;1.70;;;;;;;0.04;76.46;101599.38;105302;1273;97975;-88
2023/02/27 07:46:07;;;;;;;2.40;1.40;;;;;;;0.09;76.03;101598.54;104883;1273;97997;-82
2023/02/27 07:48:53;;;;;;;2.70;1.10;;;;;;;0.17;75.93;101600.96;104758;1277;103785;-83
2023/02/27 07:51:38;;;;;;;2.10;1.30;;;;;;;0.27;74.77;101601.72;104691;1275;100198;-83
2023/02/27 07:54:24;;;;;;;2.70;1.00;;;;;;;0.33;73.23;101601.17;105264;1273;100137;-84
2023/02/27 07:57:09;;;;;;;2.30;1.10;;;;;;;0.37;72.59;101600.25;105307;1273;96895;-87
2023/02/27 07:59:54;;;;;;;3.20;1.00;;;;;;;0.43;72.14;101600.02;105100;1279;98818;-83
2023/02/27 08:02:39;;;;;;;2.40;1.10;;;;;;;0.48;71.22;101602.48;104095;1273;103194;-79
2023/02/27 08:05:24;;;;;;;1.50;0.90;;;;;;;0.52;70.36;101603.64;104529;1277;100335;-79
2023/02/27 08:08:09;;;;;;;3.20;0.90;;;;;;;0.54;69.13;101608.61;104535;1273;99083;-84
2023/02/27 08:10:54;;;;;;;2.90;1.10;;;;;;;0.52;68.56;101609.23;105040;1277;98111;-79
2023/02/27 08:13:39;;;;;;;1.80;1.30;;;;;;;0.52;67.85;101611.56;104434;1273;97790;-77
2023/02/27 08:16:24;;;;;;;1.70;0.80;;;;;;;0.54;67.85;101612.44;105456;1273;102515;-77
2023/02/27 08:19:11;;;;;;;1.20;0.70;;;;;;;0.61;67.82;101616.39;104440;1276;100309;-75
2023/02/27 08:21:56;;;;;;;1.80;1.20;;;;;;;0.67;66.82;101615.67;104308;1276;97994;-78
2023/02/27 08:24:41;;;;;;;2.70;0.70;;;;;;;0.69;65.93;101612.33;104380;1274;98020;-78
2023/02/27 08:27:26;;;;;;;1.00;0.60;;;;;;;0.70;65.03;101619.12;104176;1276;99163;-76
2023/02/27 08:30:11;;;;;;;2.60;0.90;;;;;;;0.71;64.47;101618.73;104123;1273;102473;-79
2023/02/27 08:32:56;;;;;;;2.10;1.10;;;;;;;0.69;63.81;101622.88;104261;1274;99250;-86
2023/02/27 08:35:41;;;;;;;1.50;0.80;;;;;;;0.70;63.30;101625.29;105303;1273;98896;-81
2023/02/27 08:38:26;;;;;;;1.60;0.80;;;;;;;0.72;62.63;101627.29;105338;1274;97873;-82
2023/02/27 08:41:11;;;;;;;0.90;0.60;;;;;;;0.72;62.03;101630.81;105171;1274;98016;-81
2023/02/27 08:43:57;;;;;;;1.00;0.50;;;;;;;0.73;61.79;101626.34;105276;1274;102703;-85
2023/02/27 08:46:43;;;;;;;1.30;0.70;;;;;;;0.77;61.52;101627.85;104978;1273;101324;-85
2023/02/27 08:49:28;;;;;;;0.90;0.70;;;;;;;0.78;61.26;101633.73;105290;1277;99472;-84
2023/02/27 08:52:13;;;;;;;1.10;0.70;;;;;;;0.81;61.06;101637.23;105206;1273;98074;-83
2023/02/27 08:54:59;;;;;;;3.40;1.00;;;;;;;0.87;60.83;101635.63;104921;1274;98163;-84
2023/02/27 08:57:43;;;;;;;1.60;0.80;;;;;;;0.91;60.39;101635.58;105284;1280;102257;-81
2023/02/27 09:00:29;;;;;;;3.00;1.30;;;;;;;0.95;60.78;101637.73;105281;1273;99236;-79
2023/02/27 09:03:15;;;;;;;1.90;0.70;;;;;;;1.02;60.72;101645.51;104720;1273;98051;-83
2023/02/27 09:06:00;;;;;;;1.00;0.80;;;;;;;1.10;59.98;101653.80;104565;1275;98501;-78
2023/02/27 09:08:44;;;;;;;0.70;0.70;;;;;;;1.12;59.00;101656.50;104432;1273;98506;-76
2023/02/27 09:11:29;;;;;;;1.10;0.90;;;;;;;1.10;59.04;101658.71;104250;1274;102640;-79
2023/02/27 09:14:14;;;;;;;1.30;0.70;;;;;;;1.13;59.02;101655.72;104247;1278;99103;-77
2023/02/27 09:16:58;;;;;;;0.70;0.60;;;;;;;1.20;58.94;101656.46;104407;1275;98949;-77
2023/02/27 09:19:43;;;;;;;1.30;1.00;;;;;;;1.23;58.24;101655.05;104106;1273;98029;-76
2023/02/27 09:22:28;;;;;;;2.20;0.90;;;;;;;1.24;58.23;101659.19;104211;1274;98605;-78
2023/02/27 09:25:12;;;;;;;1.80;1.20;;;;;;;1.26;58.34;101657.84;104443;1277;102579;-77
2023/02/27 09:27:57;;;;;;;1.20;0.80;;;;;;;1.30;58.68;101659.64;104236;1274;100202;-77
2023/02/27 09:30:42;;;;;;;1.50;1.30;;;;;;;1.33;58.10;101661.02;104181;1288;98013;-81
2023/02/27 09:33:27;;;;;;;2.70;1.20;;;;;;;1.31;58.64;101666.63;104483;1274;98429;-78
2023/02/27 09:36:12;;;;;;;1.30;1.10;;;;;;;1.36;58.57;101673.37;104176;1275;97995;-76
2023/02/27 09:38:58;;;;;;;2.10;1.60;;;;;;;1.32;57.86;101680.98;104221;1275;102631;-77
2023/02/27 09:41:54;;;;;;;2.30;1.30;;;;;;;1.24;57.75;101675.91;105324;1277;100436;-77
2023/02/27 09:44:52;;;;;;;2.80;1.30;;;;;;;1.22;57.99;101679.23;104452;1273;98686;-78
2023/02/27 09:47:43;;;;;;;4.30;1.70;;;;;;;1.26;58.50;101679.13;104109;1277;98057;-78
2023/02/27 09:50:32;;;;;;;2.00;1.20;;;;;;;1.33;58.44;101678.44;104137;1279;98109;-78
2023/02/27 09:53:26;;;;;;;3.40;1.70;;;;;;;1.37;58.26;101686.29;104104;1274;101334;-74
2023/02/27 09:56:23;;;;;;;2.70;1.70;;;;;;;1.33;58.52;101687.45;104242;1277;100592;-76
2023/02/27 09:59:32;;;;;;;3.00;1.70;;;;;;;1.32;58.44;101697.39;104027;1277;98449;-75
2023/02/27 10:02:17;;;;;;;5.10;1.50;;;;;;;1.30;58.24;101705.94;104528;1274;97914;-81
2023/02/27 10:05:34;;;;;;;3.80;1.70;;;;;;;1.27;57.56;101702.96;105187;1277;98766;-79
2023/02/27 10:08:32;;;;;;;2.30;1.60;;;;;;;1.26;57.69;101704.98;104563;1293;102509;-78
2023/02/27 10:11:28;;;;;;;2.70;0.90;;;;;;;1.26;57.52;101711.86;104787;1277;99182;-78
2023/02/27 10:15:01;;;;;;;5.40;1.80;;;;;;;1.27;57.75;101705.63;106541;1273;99145;-92
2023/02/27 10:18:30;;;;;;;2.20;1.30;;;;;;;1.41;57.11;101712.62;105652;1274;98319;-87
2023/02/27 10:21:25;;;;;;;2.70;1.20;;;;;;;1.43;56.17;101713.36;105280;1281;97530;-87
2023/02/27 10:24:22;;;;;;;1.30;1.20;;;;;;;1.42;56.20;101720.81;105037;1274;102869;-78
2023/02/27 10:27:15;;;;;;;1.70;1.40;;;;;;;1.46;56.47;101712.27;105267;1273;99175;-85
2023/02/27 10:30:18;;;;;;;1.80;1.30;;;;;;;1.47;56.12;101710.04;105573;1277;97991;-81
2023/02/27 10:33:07;;;;;;;2.60;1.60;;;;;;;1.51;56.20;101715.25;105228;1273;97969;-79
2023/02/27 10:35:52;;;;;;;2.30;1.20;;;;;;;1.54;55.59;101714.56;105352;1274;97806;-79
2023/02/27 10:38:50;;;;;;;1.80;1.30;;;;;;;1.52;55.10;101706.95;105483;1273;103111;-80
2023/02/27 10:41:37;;;;;;;2.90;1.40;;;;;;;1.56;56.18;101701.70;105087;1273;100351;-80
2023/02/27 10:44:23;;;;;;;2.90;1.60;;;;;;;1.70;56.70;101709.22;105145;1276;98462;-79
2023/02/27 10:47:14;;;;;;;3.50;1.50;;;;;;;1.77;56.31;101718.12;104697;1280;99229;-79
2023/02/27 10:49:59;;;;;;;2.80;1.40;;;;;;;1.76;56.42;101714.45;104569;1273;98000;-78
2023/02/27 10:52:49;;;;;;;3.80;1.70;;;;;;;1.79;56.64;101712.30;104598;1274;101417;-79
2023/02/27 10:55:38;;;;;;;2.40;1.50;;;;;;;1.84;56.66;101716.70;104830;1274;100486;-79
2023/02/27 10:58:23;;;;;;;3.20;1.50;;;;;;;1.93;56.71;101718.75;104852;1277;99431;-81
2023/02/27 11:01:10;;;;;;;2.80;1.50;;;;;;;1.95;56.27;101720.59;104963;1273;98033;-80
2023/02/27 11:03:55;;;;;;;3.40;1.40;;;;;;;1.85;56.07;101729.34;105305;1280;98042;-81
2023/02/27 11:06:41;;;;;;;2.60;1.80;;;;;;;1.73;55.85;101729.83;105191;1280;101348;-79
2023/02/27 11:09:31;;;;;;;2.00;1.40;;;;;;;1.67;56.42;101728.67;104932;1276;100342;-78
2023/02/27 11:12:25;;;;;;;2.50;1.50;;;;;;;1.66;56.56;101734.36;104856;1273;99433;-79
2023/02/27 11:15:16;;;;;;;1.50;1.40;;;;;;;1.58;56.59;101736.44;105161;1273;98004;-79
2023/02/27 11:18:20;;;;;;;;;;;;;;;1.52;56.83;101743.88;105362;1272;97910;-80
2023/02/27 11:21:27;;;;;;;2.40;1.80;;;;;;;1.41;56.81;101743.71;105309;1274;101463;-79
2023/02/27 11:24:21;;;;;;;2.30;1.90;;;;;;;1.38;56.95;101741.67;105276;1274;100290;-85
2023/02/27 11:27:29;;;;;;;4.90;2.30;;;;;;;1.39;57.25;101739.98;104935;1276;98060;-84
2023/02/27 11:30:27;;;;;;;2.70;2.40;;;;;;;1.46;57.49;101740.27;105415;1273;97909;-79
2023/02/27 11:33:19;;;;;;;2.60;1.80;;;;;;;1.48;57.48;101744.85;104613;1274;97991;-80
2023/02/27 11:36:07;;;;;;;2.10;1.50;;;;;;;1.48;57.52;101744.65;105455;1274;101333;-85
2023/02/27 11:38:55;;;;;;;2.30;1.60;;;;;;;1.51;57.19;101743.24;105198;1274;101423;-90
2023/02/27 11:41:43;;;;;;;4.60;2.00;;;;;;;1.54;57.58;101741.79;105420;1273;98189;-82
2023/02/27 11:44:32;;;;;;;2.50;1.60;;;;;;;1.58;57.27;101738.73;105377;1274;98045;-88
2023/02/27 11:47:24;;;;;;;3.10;1.80;;;;;;;1.64;58.09;101738.70;105107;1282;96365;-78
2023/02/27 11:50:20;;;;;;;3.70;2.30;;;;;;;1.84;59.43;101737.52;105314;1273;102388;-88
2023/02/27 11:53:43;;;;;;;2.70;1.90;;;;;;;1.95;58.60;101741.34;104650;1274;100145;-83
2023/02/27 11:56:43;;;;;;;3.40;1.70;;;;;;;1.89;57.51;101745.28;105603;1278;97541;-78
2023/02/27 11:59:47;;;;;;;2.60;1.70;;;;;;;1.77;57.35;101740.46;105142;1273;98053;-81
2023/02/27 12:02:43;;;;;;;2.30;1.70;;;;;;;1.71;57.83;101742.81;105309;1273;98058;-81
2023/02/27 12:06:02;;;;;;;2.90;1.70;;;;;;;1.66;57.55;101740.48;105171;1275;102534;-82
2023/02/27 12:08:53;;;;;;;3.50;2.20;;;;;;;1.60;57.85;101736.32;105271;1273;100307;-79
2023/02/27 12:11:43;;;;;;;3.60;1.90;;;;;;;1.59;58.31;101732.70;105268;1274;99092;-85
2023/02/27 12:14:40;;;;;;;3.20;1.40;;;;;;;1.64;58.51;101735.73;105156;1273;97898;-83
2023/02/27 12:17:35;;;;;;;3.00;2.00;;;;;;;1.70;58.22;101731.27;105454;1273;98051;-81
2023/02/27 12:20:49;;;;;;;2.00;1.30;;;;;;;1.82;58.32;101734.67;105551;1279;101315;-81
2023/02/27 12:24:13;;;;;;;2.40;1.70;;;;;;;1.80;57.75;101738.00;105380;1273;100442;-82
2023/02/27 12:27:32;;;;;;;4.00;1.70;;;;;;;1.67;57.70;101743.77;105295;1274;98314;-86
2023/02/27 12:30:24;;;;;;;2.10;1.60;;;;;;;1.59;57.84;101749.05;105235;1274;97985;-82
2023/02/27 12:33:25;;;;;;;2.40;1.60;;;;;;;1.57;57.89;101745.15;105385;1274;98399;-85
2023/02/27 12:36:12;;;;;;;3.10;1.60;;;;;;;1.65;58.28;101748.84;105183;1274;103535;-85
2023/02/27 12:38:57;;;;;;;1.70;1.30;;;;;;;1.71;57.16;101747.04;105194;1274;100139;-83
2023/02/27 12:42:12;;;;;;;2.70;2.00;;;;;;;1.69;56.91;101754.39;105385;1277;98965;-88
2023/02/27 12:45:35;;;;;;;3.00;1.80;;;;;;;1.66;57.14;101754.75;104847;1274;98240;-83
2023/02/27 12:48:27;;;;;;;2.70;1.80;;;;;;;1.61;57.12;101761.62;104909;1274;97907;-86
2023/02/27 12:51:42;;;;;;;1.90;1.60;;;;;;;1.53;56.86;101766.34;105425;1273;102469;-84
2023/02/27 12:55:12;;;;;;;2.50;1.60;;;;;;;1.42;56.68;101765.30;104990;1280;100315;-79
2023/02/27 12:58:59;;;;;;;2.40;1.70;;;;;;;1.37;57.07;101766.89;105281;1277;100142;-83
2023/02/27 13:01:58;;;;;;;3.10;1.90;;;;;;;1.36;57.61;101768.52;104534;1284;97890;-82
2023/02/27 13:05:02;;;;;;;2.90;1.90;;;;;;;1.40;58.18;101771.96;105604;1274;98345;-86
2023/02/27 13:08:08;;;;;;;3.30;1.80;;;;;;;1.47;58.28;101772.75;105092;1274;101768;-85
2023/02/27 13:11:17;;;;;;;6.60;2.50;;;;;;;1.53;58.16;101768.31;105351;1272;99018;-85
2023/02/27 13:14:13;;;;;;;2.30;1.80;;;;;;;1.55;58.10;101773.45;105466;1273;97997;-86
2023/02/27 13:17:19;;;;;;;4.40;1.90;;;;;;;1.53;57.92;101775.49;105225;1280;98064;-82
2023/02/27 13:20:19;;;;;;;3.70;1.60;;;;;;;1.52;58.00;101774.70;105466;1274;98443;-86